Betty R Gambarella — WDJ6855 — position and weather

sailwx.info

Track history (hours):
 
Tides and Currents Weather Stations Pressure Air Temp Water Temp Dewpoint Dewpoint Depression Visibility Wind Speed Wind Dir Waves Ship Positions

Betty R Gambarella

Owner: CURTIN MARITIME CORP, LONG BEACH, CA. More information available from US FCC via Universal Licensing System and Coast Guard Vessel Documentation Center.

Last reported at 2017-Nov-23 03:00 UTC. Time now 2017-Nov-23 03:27 UTC.
Position N 34°23' W 120°27'.

Length 33 m; draft 3.5 m.

Type: Tow > 200 m length. MMSI: 368000890.

Date/timePositionNaut miles runAvg speedWind from/ knotsBaromVisibWave heightAir tempDewpointWater temp
2017-Nov-23 03:00N 34°23' W 120°27'4 8.5
2017-Nov-23 02:30N 34°21' W 120°23'4 8.5
2017-Nov-23 02:00N 34°20' W 120°18'5 9.0
2017-Nov-23 01:30N 34°19' W 120°12'5 8.9
2017-Nov-23 00:58N 34°18' W 120°07'4 8.9
2017-Nov-23 00:28N 34°17' W 120°01'4 8.6
2017-Nov-23 00:00N 34°16' W 119°57'4 8.4
2017-Nov-22 23:29N 34°14' W 119°52'4 8.7
2017-Nov-22 22:59N 34°13' W 119°47'4 8.9
2017-Nov-22 22:29N 34°12' W 119°42'4 8.9
2017-Nov-22 22:01N 34°10' W 119°37'4 9.0
2017-Nov-22 21:30N 34°09' W 119°32'5 9.0
2017-Nov-22 21:00N 34°08' W 119°26'5 9.2
2017-Nov-22 20:30N 34°06' W 119°21'5 9.3
2017-Nov-22 20:00N 34°05' W 119°16'5 9.2
2017-Nov-22 19:30N 34°03' W 119°11'  
2017-Nov-17 05:29N 33°38' W 118°12'3 5.6
2017-Nov-17 05:00N 33°36' W 118°14'6 5.4
2017-Nov-17 03:57N 33°30' W 118°15'16 5.1
2017-Nov-17 00:43N 33°14' W 118°19'1 5.3
2017-Nov-17 00:30N 33°13' W 118°20'3 5.5
2017-Nov-17 00:00N 33°11' W 118°22'3 5.5
2017-Nov-16 23:30N 33°09' W 118°24'3 5.5
2017-Nov-16 23:00N 33°07' W 118°27'3 5.6
2017-Nov-16 22:30N 33°05' W 118°29'3 5.6
2017-Nov-16 22:00N 33°03' W 118°31'3 5.2
2017-Nov-16 21:31N 33°01' W 118°33'1 0.9
2017-Nov-16 20:48N 33°00' W 118°33'0 0.0
2017-Nov-16 20:17N 33°00' W 118°33'0 0.0
2017-Nov-16 19:59N 33°00' W 118°33'0 0.0
2017-Nov-16 16:26N 33°00' W 118°33'0 0.0
2017-Nov-16 15:59N 33°00' W 118°33'0 0.8
2017-Nov-16 15:30N 33°01' W 118°33'0 0.1
2017-Nov-16 15:00N 33°01' W 118°33'1 1.6
2017-Nov-16 14:28N 33°02' W 118°33'2 3.3
2017-Nov-16 13:58N 33°02' W 118°31'1 3.1
2017-Nov-16 13:30N 33°04' W 118°30'2 3.7
2017-Nov-16 13:00N 33°05' W 118°29'2 4.1
2017-Nov-16 12:30N 33°07' W 118°27'3 4.4
2017-Nov-16 11:44N 33°09' W 118°25'2 4.3
2017-Nov-16 11:20N 33°10' W 118°23'2 4.3
2017-Nov-16 10:59N 33°12' W 118°22'2 4.2
2017-Nov-16 10:30N 33°13' W 118°20'2 4.2
2017-Nov-16 09:59N 33°15' W 118°19'2 4.3
2017-Nov-16 09:30N 33°16' W 118°17'5 5.5
2017-Nov-16 08:40N 33°21' W 118°15'1 6.0
2017-Nov-16 08:27N 33°22' W 118°15'14 6.1
2017-Nov-16 06:09N 33°36' W 118°14'  
Track history (hours):
 
Tides and Currents Weather Stations Pressure Air Temp Water Temp Dewpoint Dewpoint Depression Visibility Wind Speed Wind Dir Waves Ship Positions

Betty R Gambarella

Owner: CURTIN MARITIME CORP, LONG BEACH, CA. More information available from US FCC via Universal Licensing System and Coast Guard Vessel Documentation Center.

Last reported at 2017-Nov-23 03:00 UTC. Time now 2017-Nov-23 03:27 UTC.
Position N 34°23' W 120°27'.

Length 33 m; draft 3.5 m.

Type: Tow > 200 m length. MMSI: 368000890.

Date/timePositionNaut miles runAvg speedWind from/ knotsBaromVisibWave heightAir tempDewpointWater temp
2017-Nov-23 03:00N 34°23' W 120°27'4 8.5
2017-Nov-23 02:30N 34°21' W 120°23'4 8.5
2017-Nov-23 02:00N 34°20' W 120°18'5 9.0
2017-Nov-23 01:30N 34°19' W 120°12'5 8.9
2017-Nov-23 00:58N 34°18' W 120°07'4 8.9
2017-Nov-23 00:28N 34°17' W 120°01'4 8.6
2017-Nov-23 00:00N 34°16' W 119°57'4 8.4
2017-Nov-22 23:29N 34°14' W 119°52'4 8.7
2017-Nov-22 22:59N 34°13' W 119°47'4 8.9
2017-Nov-22 22:29N 34°12' W 119°42'4 8.9
2017-Nov-22 22:01N 34°10' W 119°37'4 9.0
2017-Nov-22 21:30N 34°09' W 119°32'5 9.0
2017-Nov-22 21:00N 34°08' W 119°26'5 9.2
2017-Nov-22 20:30N 34°06' W 119°21'5 9.3
2017-Nov-22 20:00N 34°05' W 119°16'5 9.2
2017-Nov-22 19:30N 34°03' W 119°11'  
2017-Nov-17 05:29N 33°38' W 118°12'3 5.6
2017-Nov-17 05:00N 33°36' W 118°14'6 5.4
2017-Nov-17 03:57N 33°30' W 118°15'16 5.1
2017-Nov-17 00:43N 33°14' W 118°19'1 5.3
2017-Nov-17 00:30N 33°13' W 118°20'3 5.5
2017-Nov-17 00:00N 33°11' W 118°22'3 5.5
2017-Nov-16 23:30N 33°09' W 118°24'3 5.5
2017-Nov-16 23:00N 33°07' W 118°27'3 5.6
2017-Nov-16 22:30N 33°05' W 118°29'3 5.6
2017-Nov-16 22:00N 33°03' W 118°31'3 5.2
2017-Nov-16 21:31N 33°01' W 118°33'1 0.9
2017-Nov-16 20:48N 33°00' W 118°33'0 0.0
2017-Nov-16 20:17N 33°00' W 118°33'0 0.0
2017-Nov-16 19:59N 33°00' W 118°33'0 0.0
2017-Nov-16 16:26N 33°00' W 118°33'0 0.0
2017-Nov-16 15:59N 33°00' W 118°33'0 0.8
2017-Nov-16 15:30N 33°01' W 118°33'0 0.1
2017-Nov-16 15:00N 33°01' W 118°33'1 1.6
2017-Nov-16 14:28N 33°02' W 118°33'2 3.3
2017-Nov-16 13:58N 33°02' W 118°31'1 3.1
2017-Nov-16 13:30N 33°04' W 118°30'2 3.7
2017-Nov-16 13:00N 33°05' W 118°29'2 4.1
2017-Nov-16 12:30N 33°07' W 118°27'3 4.4
2017-Nov-16 11:44N 33°09' W 118°25'2 4.3
2017-Nov-16 11:20N 33°10' W 118°23'2 4.3
2017-Nov-16 10:59N 33°12' W 118°22'2 4.2
2017-Nov-16 10:30N 33°13' W 118°20'2 4.2
2017-Nov-16 09:59N 33°15' W 118°19'2 4.3
2017-Nov-16 09:30N 33°16' W 118°17'5 5.5
2017-Nov-16 08:40N 33°21' W 118°15'1 6.0
2017-Nov-16 08:27N 33°22' W 118°15'14 6.1
2017-Nov-16 06:09N 33°36' W 118°14'  

Dump ship's entire track history